Time;durP1;ratioP1;P1;durP2;ratioP2;P2;SDS_P1;SDS_P2;PMS_P1;PMS_P2;Temp;Humidity;BMP_temperature;BMP_pressure;BME280_temperature;BME280_humidity;BME280_pressure;Samples;Min_cycle;Max_cycle;Signal;HPM_P1;HPM_P2
2021/03/20 00:00:50;;;;;;;6.93;1.90;;;-3.30;99.90;;;;;;5057333;28;20033;-69
2021/03/20 00:03:17;;;;;;;7.43;2.78;;;-3.20;99.90;;;;;;5055144;28;20033;-69
2021/03/20 00:05:43;;;;;;;4.50;1.85;;;-3.10;99.90;;;;;;5056729;28;20025;-69
2021/03/20 00:08:11;;;;;;;2.88;1.55;;;-3.10;99.90;;;;;;5039387;28;20417;-69
2021/03/20 00:10:37;;;;;;;4.90;2.33;;;-3.00;99.90;;;;;;5056696;28;20118;-69
2021/03/20 00:13:03;;;;;;;5.70;1.90;;;-3.00;99.90;;;;;;5056821;28;20030;-68
2021/03/20 00:15:29;;;;;;;5.65;1.90;;;-2.90;99.90;;;;;;5055178;28;20252;-69
2021/03/20 00:17:54;;;;;;;6.50;2.10;;;-2.90;99.90;;;;;;5055974;28;20560;-69
2021/03/20 00:20:24;;;;;;;3.78;1.60;;;-2.80;99.90;;;;;;5056903;28;20029;-69
2021/03/20 00:22:51;;;;;;;7.75;2.00;;;-2.80;99.90;;;;;;5055111;28;20036;-69
2021/03/20 00:25:18;;;;;;;5.72;2.72;;;-2.80;99.90;;;;;;5056865;28;20078;-69
2021/03/20 00:27:43;;;;;;;5.35;2.28;;;-2.80;99.90;;;;;;5056415;28;20097;-69
2021/03/20 00:30:10;;;;;;;4.47;2.15;;;-2.80;99.90;;;;;;5056926;28;20767;-69
2021/03/20 00:32:36;;;;;;;5.57;1.70;;;-2.80;99.90;;;;;;5038202;28;20048;-69
2021/03/20 00:35:04;;;;;;;7.25;2.30;;;-2.80;99.90;;;;;;5056184;28;20024;-69
2021/03/20 00:37:30;;;;;;;6.28;1.73;;;-2.80;99.90;;;;;;5054997;28;20037;-69
2021/03/20 00:39:55;;;;;;;8.27;1.73;;;-2.80;99.90;;;;;;5055760;28;20071;-69
2021/03/20 00:42:21;;;;;;;3.72;2.20;;;-2.80;99.90;;;;;;5056616;28;20876;-69
2021/03/20 00:44:47;;;;;;;5.28;1.80;;;-2.80;99.90;;;;;;5054062;28;20091;-69
2021/03/20 00:47:13;;;;;;;3.60;1.65;;;-2.80;99.90;;;;;;5055683;28;20694;-69
2021/03/20 00:49:39;;;;;;;3.75;1.40;;;-2.80;99.90;;;;;;5055624;28;20040;-69
2021/03/20 00:52:05;;;;;;;5.93;1.80;;;-2.80;99.90;;;;;;5056223;28;20032;-69
2021/03/20 00:54:30;;;;;;;6.18;1.58;;;-2.80;99.90;;;;;;5055764;28;20833;-69
2021/03/20 00:56:56;;;;;;;6.70;1.60;;;-2.80;99.90;;;;;;5055832;28;20039;-69
2021/03/20 00:59:22;;;;;;;6.57;1.67;;;-2.80;99.90;;;;;;5056407;28;20132;-69
2021/03/20 01:01:47;;;;;;;5.35;1.40;;;-2.80;99.90;;;;;;5054052;28;20025;-69
2021/03/20 01:04:13;;;;;;;7.68;1.90;;;-2.70;99.90;;;;;;5053884;28;20040;-69
2021/03/20 01:06:39;;;;;;;7.25;1.75;;;-2.60;99.90;;;;;;5055110;28;20072;-69
2021/03/20 01:09:05;;;;;;;5.40;1.42;;;-2.70;99.90;;;;;;5054819;28;20040;-69
2021/03/20 01:11:31;;;;;;;3.85;1.90;;;-2.60;99.90;;;;;;5055503;28;20033;-69
2021/03/20 01:13:58;;;;;;;5.00;1.70;;;-2.60;99.90;;;;;;5054273;28;20045;-69
2021/03/20 01:16:24;;;;;;;3.58;1.60;;;-2.60;99.90;;;;;;5054631;28;20033;-69
2021/03/20 01:18:50;;;;;;;5.18;1.63;;;-2.50;99.90;;;;;;5055375;28;20029;-69
2021/03/20 01:21:16;;;;;;;2.35;1.67;;;-2.50;99.90;;;;;;5054123;28;20033;-69
2021/03/20 01:23:42;;;;;;;6.55;1.90;;;-2.40;99.90;;;;;;5054899;28;20114;-69
2021/03/20 01:26:08;;;;;;;2.92;1.60;;;-2.40;99.90;;;;;;5056038;28;20032;-69
2021/03/20 01:28:36;;;;;;;10.18;3.15;;;-2.30;99.90;;;;;;5052958;28;20032;-70
2021/03/20 01:31:03;;;;;;;3.63;1.67;;;-2.30;99.90;;;;;;5054328;28;20466;-70
2021/03/20 01:33:29;;;;;;;4.65;1.55;;;-2.30;99.90;;;;;;5055483;28;20071;-69
2021/03/20 01:35:55;;;;;;;5.43;1.60;;;-2.30;99.90;;;;;;5055417;28;20060;-69
2021/03/20 01:38:22;;;;;;;2.47;1.50;;;-2.30;99.90;;;;;;5053589;28;20036;-69
2021/03/20 01:40:57;;;;;;;3.35;1.40;;;-2.20;99.90;;;;;;5055326;28;20576;-69
2021/03/20 01:43:25;;;;;;;2.97;1.55;;;-2.20;99.90;;;;;;5055138;28;20462;-69
2021/03/20 01:45:51;;;;;;;3.25;1.63;;;-2.20;99.90;;;;;;5055103;28;20354;-69
2021/03/20 01:48:26;;;;;;;7.78;1.83;;;-2.20;99.90;;;;;;5054676;28;20055;-69
2021/03/20 01:50:58;;;;;;;6.30;1.70;;;-2.20;99.90;;;;;;5054168;28;20548;-69
2021/03/20 01:53:46;;;;;;;3.17;1.63;;;-2.20;99.90;;;;;;5054846;28;20116;-69
2021/03/20 01:56:18;;;;;;;5.55;2.10;;;-2.10;99.90;;;;;;5053307;28;20440;-69
2021/03/20 01:58:47;;;;;;;3.95;1.60;;;-2.10;99.90;;;;;;5054792;28;20028;-69
2021/03/20 02:01:18;;;;;;;8.65;2.00;;;-2.00;99.90;;;;;;5054588;28;20762;-68
2021/03/20 02:03:44;;;;;;;4.00;1.85;;;-2.00;99.90;;;;;;5037330;28;20102;-70
2021/03/20 02:06:10;;;;;;;4.10;1.80;;;-1.90;99.90;;;;;;5054130;28;20025;-69
2021/03/20 02:08:38;;;;;;;7.35;1.52;;;-2.00;99.90;;;;;;5054144;28;20047;-69
2021/03/20 02:11:31;;;;;;;4.97;1.67;;;-2.00;99.90;;;;;;5054318;28;20036;-69
2021/03/20 02:14:11;;;;;;;3.58;1.48;;;-2.00;99.90;;;;;;5037634;28;20039;-69
2021/03/20 02:16:41;;;;;;;8.98;1.70;;;-2.00;99.90;;;;;;5055063;28;20546;-69
2021/03/20 02:19:33;;;;;;;7.65;1.80;;;-1.90;99.90;;;;;;5059145;28;20037;-69
2021/03/20 02:22:03;;;;;;;3.70;1.73;;;-1.90;99.90;;;;;;5026541;28;20081;-69
2021/03/20 02:24:49;;;;;;;4.82;1.75;;;-2.00;99.90;;;;;;5058327;28;20790;-69
2021/03/20 02:27:20;;;;;;;3.08;1.70;;;-1.90;99.90;;;;;;5040635;28;20138;-69
2021/03/20 02:30:19;;;;;;;3.45;1.95;;;-1.90;99.90;;;;;;5059766;28;20461;-69
2021/03/20 02:33:22;;;;;;;8.10;1.70;;;-1.90;99.90;;;;;;5058988;28;20143;-69
2021/03/20 02:36:22;;;;;;;3.22;1.52;;;-1.90;99.90;;;;;;5056841;28;20041;-63
2021/03/20 02:38:52;;;;;;;7.18;2.20;;;-1.90;99.90;;;;;;5058711;28;20499;-62
2021/03/20 02:41:24;;;;;;;4.30;1.70;;;-1.90;99.90;;;;;;5059637;28;20020;-63
2021/03/20 02:44:05;;;;;;;4.07;2.03;;;-1.90;99.90;;;;;;5059680;28;20795;-63
2021/03/20 02:46:37;;;;;;;5.45;2.08;;;-1.90;99.90;;;;;;5058794;28;20036;-63
2021/03/20 02:49:40;;;;;;;6.00;1.90;;;-1.90;99.90;;;;;;5058862;28;20068;-63
2021/03/20 02:52:24;;;;;;;8.43;2.05;;;-1.80;99.90;;;;;;5058082;28;20245;-63
2021/03/20 02:55:48;;;;;;;3.67;1.60;;;-1.90;99.90;;;;;;5024223;28;20524;-63
2021/03/20 02:58:25;;;;;;;8.95;1.80;;;-1.70;99.90;;;;;;4976733;28;20073;-63
2021/03/20 03:00:59;;;;;;;3.90;1.60;;;-1.80;99.90;;;;;;4975455;28;21079;-63
2021/03/20 03:03:31;;;;;;;5.07;1.92;;;-1.80;99.90;;;;;;5025557;28;20043;-63
2021/03/20 03:06:04;;;;;;;3.47;1.80;;;-1.80;99.90;;;;;;5058424;28;20778;-63
2021/03/20 03:08:37;;;;;;;4.72;1.75;;;-1.80;99.90;;;;;;5058313;28;20043;-63
2021/03/20 03:11:14;;;;;;;5.70;1.90;;;-1.70;99.90;;;;;;5058391;28;20032;-63
2021/03/20 03:13:47;;;;;;;4.32;1.60;;;-1.80;99.90;;;;;;5058932;28;20086;-63
2021/03/20 03:16:23;;;;;;;7.75;2.13;;;-1.80;99.90;;;;;;5057296;28;20872;-63
2021/03/20 03:19:00;;;;;;;4.75;1.60;;;-1.80;99.90;;;;;;5057049;28;20032;-63
2021/03/20 03:21:29;;;;;;;6.13;1.73;;;-1.80;99.90;;;;;;5057900;28;20548;-63
2021/03/20 03:23:55;;;;;;;4.50;2.00;;;-1.80;99.90;;;;;;5058244;28;20040;-63
2021/03/20 03:26:27;;;;;;;6.40;1.95;;;-1.80;99.90;;;;;;5057052;28;20924;-63
2021/03/20 03:29:15;;;;;;;6.68;1.70;;;-1.80;99.90;;;;;;5055765;28;20056;-63
2021/03/20 03:31:54;;;;;;;4.55;1.63;;;-1.80;99.90;;;;;;5056704;28;20043;-63
2021/03/20 03:34:24;;;;;;;6.05;1.45;;;-1.80;99.90;;;;;;5054284;28;20040;-63
2021/03/20 03:37:08;;;;;;;7.30;1.90;;;-1.80;99.90;;;;;;5055801;28;20071;-63
2021/03/20 03:39:59;;;;;;;5.20;1.80;;;-1.80;99.90;;;;;;5058128;28;20583;-63
2021/03/20 03:42:26;;;;;;;9.10;2.22;;;-1.80;99.90;;;;;;5056943;28;20039;-63
2021/03/20 03:44:54;;;;;;;4.95;1.65;;;-1.80;99.90;;;;;;5057887;28;20036;-63
2021/03/20 03:47:23;;;;;;;6.25;1.88;;;-1.80;99.90;;;;;;5057591;28;20028;-63
2021/03/20 03:49:53;;;;;;;5.30;2.17;;;-1.80;99.90;;;;;;5055760;28;20037;-63
2021/03/20 03:52:19;;;;;;;4.63;1.73;;;-1.70;99.90;;;;;;5057384;28;20036;-63
2021/03/20 03:54:45;;;;;;;4.45;1.65;;;-1.80;99.90;;;;;;5039064;28;20819;-63
2021/03/20 03:57:23;;;;;;;5.65;1.70;;;-1.80;99.90;;;;;;5056716;28;20033;-63
2021/03/20 04:00:11;;;;;;;3.38;1.70;;;-1.80;99.90;;;;;;5056287;28;20024;-63
2021/03/20 04:03:03;;;;;;;10.18;2.17;;;-1.80;99.90;;;;;;5039941;28;20028;-63
2021/03/20 04:06:10;;;;;;;4.38;1.65;;;-1.80;99.90;;;;;;5055544;28;20032;-63
2021/03/20 04:08:57;;;;;;;3.70;1.70;;;-1.80;99.90;;;;;;5055387;28;20036;-63
2021/03/20 04:11:50;;;;;;;4.20;1.90;;;-1.80;99.90;;;;;;5057349;28;20028;-63
2021/03/20 04:14:20;;;;;;;5.53;2.03;;;-1.80;99.90;;;;;;5038671;28;20036;-63
2021/03/20 04:17:02;;;;;;;6.97;1.95;;;-1.70;99.90;;;;;;5056819;28;20515;-63
2021/03/20 04:19:41;;;;;;;7.82;1.85;;;-1.70;99.90;;;;;;5056911;28;20033;-63
2021/03/20 04:22:14;;;;;;;6.10;1.80;;;-1.70;99.90;;;;;;5056827;28;20533;-63
2021/03/20 04:24:42;;;;;;;6.18;1.90;;;-1.60;99.90;;;;;;5038574;28;20042;-63
2021/03/20 04:27:18;;;;;;;4.13;1.70;;;-1.70;99.90;;;;;;5056383;28;20033;-63
2021/03/20 04:29:52;;;;;;;9.23;1.90;;;-1.70;99.90;;;;;;5055875;28;20036;-63
2021/03/20 04:32:30;;;;;;;5.00;1.98;;;-1.70;99.90;;;;;;5056317;28;20120;-63
2021/03/20 04:34:58;;;;;;;3.78;2.33;;;-1.70;99.90;;;;;;5054585;28;20158;-63
2021/03/20 04:37:29;;;;;;;4.13;1.70;;;-1.60;99.90;;;;;;5048848;28;20912;-63
2021/03/20 04:39:56;;;;;;;4.90;2.30;;;-1.60;99.90;;;;;;5049690;28;20033;-63
2021/03/20 04:42:28;;;;;;;3.33;1.52;;;-1.60;99.90;;;;;;5055598;28;20121;-63
2021/03/20 04:44:55;;;;;;;3.22;1.70;;;-1.70;99.90;;;;;;5055671;28;20036;-63
2021/03/20 04:47:25;;;;;;;7.25;2.00;;;-1.70;99.90;;;;;;5056171;28;20032;-63
2021/03/20 04:50:05;;;;;;;7.03;1.60;;;-1.70;99.90;;;;;;5055484;28;20040;-63
2021/03/20 04:52:36;;;;;;;2.72;1.70;;;-1.70;99.90;;;;;;5055481;28;20771;-63
2021/03/20 04:55:05;;;;;;;6.35;1.83;;;-1.70;99.90;;;;;;5055996;28;20106;-63
2021/03/20 04:57:45;;;;;;;5.45;1.65;;;-1.70;99.90;;;;;;5055559;28;20042;-63
2021/03/20 05:00:30;;;;;;;5.18;1.88;;;-1.70;99.90;;;;;;5044026;28;20028;-63
2021/03/20 05:03:15;;;;;;;3.85;1.73;;;-1.60;99.90;;;;;;5055889;28;20039;-63
2021/03/20 05:06:11;;;;;;;4.88;1.80;;;-1.70;99.90;;;;;;5049648;28;20051;-63
2021/03/20 05:08:51;;;;;;;5.25;1.65;;;-1.70;99.90;;;;;;5054636;28;20028;-63
2021/03/20 05:11:24;;;;;;;5.28;1.95;;;-1.70;99.90;;;;;;5034835;28;20040;-63
2021/03/20 05:14:27;;;;;;;3.30;1.55;;;-1.70;99.90;;;;;;5055687;28;20062;-62
2021/03/20 05:16:58;;;;;;;3.97;1.60;;;-1.60;99.90;;;;;;5055037;28;20558;-63
2021/03/20 05:19:26;;;;;;;4.57;2.25;;;-1.60;99.90;;;;;;5055849;28;20024;-62
2021/03/20 05:21:54;;;;;;;4.65;1.63;;;-1.60;99.90;;;;;;5036511;28;20154;-62
2021/03/20 05:24:26;;;;;;;4.15;1.63;;;-1.50;99.90;;;;;;5035258;28;20071;-62
2021/03/20 05:26:53;;;;;;;5.70;1.77;;;-1.50;99.90;;;;;;5052677;28;20041;-63
2021/03/20 05:29:19;;;;;;;5.07;1.80;;;-1.50;99.90;;;;;;5055247;28;20575;-63
2021/03/20 05:31:45;;;;;;;5.65;1.88;;;-1.50;99.90;;;;;;5036310;28;20032;-63
2021/03/20 05:34:23;;;;;;;5.72;2.00;;;-1.50;99.90;;;;;;5055248;28;20649;-63
2021/03/20 05:36:48;;;;;;;5.22;1.88;;;-1.50;99.90;;;;;;5051690;28;20671;-63
2021/03/20 05:39:15;;;;;;;6.32;2.08;;;-1.40;99.90;;;;;;5053594;28;20115;-63
2021/03/20 05:41:47;;;;;;;7.38;2.00;;;-1.40;99.90;;;;;;5036267;28;20393;-63
2021/03/20 05:44:38;;;;;;;3.85;1.70;;;-1.30;99.90;;;;;;5050187;28;20111;-63
2021/03/20 05:47:32;;;;;;;5.88;2.20;;;-1.30;99.90;;;;;;5052966;28;20454;-63
2021/03/20 05:50:30;;;;;;;13.48;4.82;;;-1.20;99.90;;;;;;5037754;28;20036;-67
2021/03/20 05:53:16;;;;;;;21.48;8.23;;;-1.20;99.90;;;;;;5004243;28;20074;-63
2021/03/20 05:56:01;;;;;;;64.70;23.65;;;-1.10;99.90;;;;;;5037027;28;20053;-63
2021/03/20 05:58:35;;;;;;;11.38;4.40;;;-1.00;99.90;;;;;;5055173;28;20029;-63
2021/03/20 06:01:18;;;;;;;9.75;3.13;;;-1.00;99.90;;;;;;5055583;28;20024;-63
2021/03/20 06:03:56;;;;;;;8.40;3.28;;;-0.90;99.90;;;;;;5055820;28;20292;-63
2021/03/20 06:06:56;;;;;;;19.10;6.70;;;-0.90;99.90;;;;;;5047556;28;20071;-64
2021/03/20 06:09:34;;;;;;;7.20;2.72;;;-0.80;99.90;;;;;;5042101;28;20082;-63
2021/03/20 06:12:24;;;;;;;4.75;2.22;;;-0.80;99.90;;;;;;5054767;28;20124;-63
2021/03/20 06:15:20;;;;;;;32.80;10.27;;;-0.70;99.90;;;;;;5045466;28;20045;-63
2021/03/20 06:18:22;;;;;;;10.88;3.80;;;-0.70;99.90;;;;;;5032377;28;20048;-63
2021/03/20 06:21:04;;;;;;;32.53;10.18;;;-0.60;99.90;;;;;;5054166;28;20033;-63
2021/03/20 06:23:54;;;;;;;18.30;7.00;;;-0.50;99.90;;;;;;5055918;28;20028;-69
2021/03/20 06:26:27;;;;;;;7.55;3.00;;;-0.30;99.90;;;;;;5049709;28;20135;-69
2021/03/20 06:28:54;;;;;;;5.07;2.17;;;-0.40;99.90;;;;;;5050715;28;20401;-68
2021/03/20 06:31:36;;;;;;;10.25;3.22;;;-0.30;99.90;;;;;;5033464;28;20040;-69
2021/03/20 06:34:10;;;;;;;6.57;1.88;;;-0.30;99.90;;;;;;5053848;28;20028;-69
2021/03/20 06:36:46;;;;;;;5.68;1.85;;;-0.20;99.90;;;;;;5054620;28;20090;-63
2021/03/20 06:39:18;;;;;;;8.10;2.10;;;-0.20;99.90;;;;;;5053788;28;20533;-63
2021/03/20 06:41:49;;;;;;;7.55;2.58;;;-0.30;99.90;;;;;;5055618;28;20040;-63
2021/03/20 06:44:23;;;;;;;6.70;2.30;;;-0.30;99.90;;;;;;5037221;28;20033;-62
2021/03/20 06:46:51;;;;;;;9.02;2.38;;;-0.30;99.90;;;;;;5052909;28;20064;-63
2021/03/20 06:49:22;;;;;;;9.50;2.60;;;-0.20;99.90;;;;;;5048884;28;20080;-64
2021/03/20 06:51:49;;;;;;;5.13;2.30;;;-0.20;99.90;;;;;;5045805;28;20044;-64
2021/03/20 06:54:18;;;;;;;4.25;2.10;;;-0.30;99.90;;;;;;5049576;28;20788;-64
2021/03/20 06:56:45;;;;;;;4.20;2.25;;;-0.20;99.90;;;;;;5054044;28;20040;-64
2021/03/20 06:59:13;;;;;;;6.35;2.20;;;-0.20;99.90;;;;;;5049775;28;20040;-64
2021/03/20 07:01:48;;;;;;;10.50;2.72;;;-0.20;99.90;;;;;;5055179;28;20056;-65
2021/03/20 07:04:25;;;;;;;7.00;2.50;;;-0.10;99.90;;;;;;5053401;28;20856;-65
2021/03/20 07:07:28;;;;;;;9.80;2.90;;;-0.10;99.90;;;;;;5053155;28;20684;-69
2021/03/20 07:09:54;;;;;;;11.32;3.88;;;-0.20;99.90;;;;;;5055334;28;20408;-64
2021/03/20 07:12:23;;;;;;;4.95;2.78;;;-0.20;99.90;;;;;;5056929;28;20041;-64
2021/03/20 07:15:00;;;;;;;13.23;6.53;;;-0.10;99.90;;;;;;5056135;28;20051;-67
2021/03/20 07:17:34;;;;;;;9.27;3.15;;;0.10;99.90;;;;;;5059137;28;20111;-65
2021/03/20 07:20:15;;;;;;;11.95;6.07;;;0.30;99.90;;;;;;5057753;28;20028;-65
2021/03/20 07:22:43;;;;;;;25.55;8.85;;;0.40;99.90;;;;;;5058825;28;20036;-65
2021/03/20 07:25:32;;;;;;;5.68;2.63;;;0.50;99.90;;;;;;5053106;28;20758;-67
2021/03/20 07:28:29;;;;;;;6.43;3.15;;;0.70;99.90;;;;;;5040013;28;20055;-65
2021/03/20 07:31:09;;;;;;;8.73;3.50;;;0.90;99.90;;;;;;5044136;28;20048;-65
2021/03/20 07:33:55;;;;;;;5.10;2.90;;;0.90;99.90;;;;;;5058972;28;20043;-65
2021/03/20 07:36:20;;;;;;;10.13;5.03;;;1.10;99.90;;;;;;5052313;28;20032;-65
2021/03/20 07:39:20;;;;;;;11.45;4.70;;;1.20;99.90;;;;;;5040048;28;20028;-65
2021/03/20 07:41:57;;;;;;;7.95;3.00;;;1.20;99.90;;;;;;5054059;28;20124;-65
2021/03/20 07:44:49;;;;;;;14.13;6.88;;;1.30;99.90;;;;;;5056887;28;20039;-65
2021/03/20 07:47:16;;;;;;;5.45;2.05;;;1.50;99.90;;;;;;5038819;28;20044;-65
2021/03/20 07:49:42;;;;;;;8.63;1.55;;;1.70;99.90;;;;;;5051677;28;20029;-65
2021/03/20 07:52:26;;;;;;;6.72;1.80;;;1.90;99.90;;;;;;5057239;28;20488;-65
2021/03/20 07:55:10;;;;;;;9.15;5.10;;;2.00;99.90;;;;;;5051594;28;20051;-65
2021/03/20 07:57:36;;;;;;;5.38;2.28;;;2.20;99.90;;;;;;5049295;28;20635;-65
2021/03/20 08:00:19;;;;;;;4.85;1.48;;;2.30;99.90;;;;;;5050364;28;20036;-65
2021/03/20 08:02:45;;;;;;;23.60;12.23;;;2.30;99.90;;;;;;5049233;28;20428;-65
2021/03/20 08:05:39;;;;;;;40.05;22.95;;;2.50;99.90;;;;;;5057108;28;20121;-65
2021/03/20 08:08:26;;;;;;;17.55;8.30;;;2.70;99.90;;;;;;5038405;28;20036;-65
2021/03/20 08:10:55;;;;;;;22.65;9.52;;;3.10;99.80;;;;;;5046950;28;20036;-65
2021/03/20 08:13:36;;;;;;;30.30;13.82;;;3.20;98.60;;;;;;5048894;28;20044;-65
2021/03/20 08:16:02;;;;;;;26.38;10.98;;;3.30;97.20;;;;;;5052641;28;20139;-65
2021/03/20 08:18:37;;;;;;;10.10;4.65;;;3.20;96.10;;;;;;5049307;28;20036;-67
2021/03/20 08:21:12;;;;;;;12.02;5.70;;;3.20;96.20;;;;;;5049184;28;20027;-65
2021/03/20 08:23:56;;;;;;;8.50;5.10;;;3.40;94.10;;;;;;5045866;28;20048;-65
2021/03/20 08:26:41;;;;;;;5.75;1.85;;;3.40;93.40;;;;;;5047947;28;20037;-66
2021/03/20 08:29:45;;;;;;;4.32;1.38;;;3.60;90.10;;;;;;5053989;28;20559;-65
2021/03/20 08:32:15;;;;;;;4.60;1.30;;;3.50;87.80;;;;;;5049746;28;20040;-65
2021/03/20 08:35:10;;;;;;;8.13;1.67;;;3.40;85.90;;;;;;5028513;28;20083;-65
2021/03/20 08:38:14;;;;;;;6.03;2.35;;;3.40;87.40;;;;;;5038259;28;20055;-65
2021/03/20 08:41:27;;;;;;;9.40;1.55;;;3.60;79.80;;;;;;5053044;28;20093;-65
2021/03/20 08:44:01;;;;;;;4.10;1.08;;;3.60;78.20;;;;;;4949943;28;20034;-65
2021/03/20 08:46:46;;;;;;;2.67;1.13;;;3.70;79.30;;;;;;5031526;28;20045;-66
2021/03/20 08:49:16;;;;;;;4.10;1.50;;;3.90;75.20;;;;;;5055063;28;20860;-65
2021/03/20 08:52:03;;;;;;;2.58;1.17;;;4.00;73.20;;;;;;5038295;28;20114;-65
2021/03/20 08:54:44;;;;;;;20.98;7.90;;;4.00;72.80;;;;;;5046656;28;20759;-65
2021/03/20 08:57:28;;;;;;;3.03;0.93;;;4.20;73.40;;;;;;5016928;28;20953;-65
2021/03/20 08:59:55;;;;;;;8.20;2.33;;;4.40;69.20;;;;;;5028549;28;20077;-65
2021/03/20 09:02:24;;;;;;;5.10;0.90;;;4.50;70.10;;;;;;5049885;28;20029;-64
2021/03/20 09:04:54;;;;;;;2.67;1.10;;;4.60;66.00;;;;;;5032241;28;20028;-67
2021/03/20 09:07:30;;;;;;;3.85;1.67;;;4.60;65.20;;;;;;5044787;28;20111;-64
2021/03/20 09:09:59;;;;;;;11.93;4.30;;;4.60;68.10;;;;;;5048811;28;20032;-64
2021/03/20 09:12:32;;;;;;;9.02;5.45;;;4.60;65.70;;;;;;5048057;28;20041;-64
2021/03/20 09:14:59;;;;;;;8.43;2.55;;;4.50;62.60;;;;;;5045635;28;20781;-64
2021/03/20 09:17:35;;;;;;;23.58;12.18;;;4.50;63.10;;;;;;5049564;28;20767;-64
2021/03/20 09:20:12;;;;;;;18.70;9.30;;;4.70;62.40;;;;;;5030936;28;20048;-64
2021/03/20 09:22:44;;;;;;;6.43;1.20;;;4.80;60.90;;;;;;5051633;28;20041;-64
2021/03/20 09:25:34;;;;;;;2.97;1.20;;;4.90;59.40;;;;;;5043025;28;20085;-64
2021/03/20 09:28:14;;;;;;;6.60;1.85;;;4.90;56.00;;;;;;5047678;28;20035;-65
2021/03/20 09:30:44;;;;;;;2.25;1.33;;;4.90;56.90;;;;;;5044180;28;20029;-64
2021/03/20 09:33:27;;;;;;;5.03;1.05;;;5.10;55.60;;;;;;5046603;28;20055;-64
2021/03/20 09:35:56;;;;;;;4.38;1.88;;;5.10;58.40;;;;;;5019505;28;20047;-64
2021/03/20 09:38:34;;;;;;;3.20;1.05;;;4.90;58.60;;;;;;5046961;28;20033;-66
2021/03/20 09:41:15;;;;;;;2.85;1.20;;;4.70;59.70;;;;;;5049884;28;20881;-66
2021/03/20 09:44:08;;;;;;;1.70;0.82;;;4.90;59.40;;;;;;5044282;28;20075;-64
2021/03/20 09:46:36;;;;;;;4.60;1.00;;;5.10;57.70;;;;;;5049043;28;20565;-64
2021/03/20 09:49:22;;;;;;;1.52;0.85;;;5.00;58.70;;;;;;5056073;28;20575;-66
2021/03/20 09:51:47;;;;;;;;;;;5.00;57.20;;;;;;5023790;28;20604;-64
2021/03/20 09:54:33;;;;;;;3.47;1.05;;;5.00;60.30;;;;;;5048994;28;19918;-64
2021/03/20 09:59:42;;;;;;;3.13;1.55;;;5.60;57.00;;;;;;5053759;28;20063;-64
2021/03/20 10:02:30;;;;;;;5.25;3.00;;;5.50;57.50;;;;;;5043360;28;20029;-65
2021/03/20 10:04:58;;;;;;;18.20;7.38;;;5.70;58.80;;;;;;5052577;28;20683;-65
2021/03/20 10:07:24;;;;;;;5.25;1.48;;;5.80;57.60;;;;;;5030510;28;20055;-64
2021/03/20 10:10:01;;;;;;;6.28;3.15;;;6.10;58.00;;;;;;5027679;28;20041;-64
2021/03/20 10:12:36;;;;;;;13.02;5.57;;;6.00;57.70;;;;;;5052985;28;20496;-64
2021/03/20 10:17:57;;;;;;;;;;;6.30;56.40;;;;;;5048797;28;19916;-65
2021/03/20 10:20:35;;;;;;;3.08;1.20;;;6.50;56.80;;;;;;5047768;28;19947;-66
2021/03/20 10:23:08;;;;;;;3.03;1.42;;;6.30;54.20;;;;;;5051209;28;20542;-66
2021/03/20 10:25:35;;;;;;;22.40;11.07;;;6.20;56.80;;;;;;5051498;28;20547;-66
2021/03/20 10:28:04;;;;;;;17.25;2.97;;;6.20;54.30;;;;;;5046019;28;20082;-66
2021/03/20 10:30:33;;;;;;;3.70;1.35;;;5.80;54.60;;;;;;5029651;28;20032;-66
2021/03/20 10:33:14;;;;;;;3.28;1.80;;;5.80;55.50;;;;;;5049660;28;20445;-66
2021/03/20 10:35:40;;;;;;;3.42;0.98;;;5.80;54.80;;;;;;5044791;28;20035;-66
2021/03/20 10:38:26;;;;;;;6.97;1.50;;;5.70;54.30;;;;;;5046717;28;20032;-66
2021/03/20 10:41:13;;;;;;;6.13;1.25;;;5.60;55.80;;;;;;5054098;28;20041;-66
2021/03/20 10:43:45;;;;;;;11.52;5.32;;;5.40;56.10;;;;;;5030888;28;20413;-67
2021/03/20 10:46:26;;;;;;;4.10;1.35;;;5.50;57.60;;;;;;5051062;28;20331;-64
2021/03/20 10:48:55;;;;;;;6.75;1.70;;;5.80;55.90;;;;;;5050437;28;20082;-66
2021/03/20 10:51:23;;;;;;;4.75;1.30;;;6.10;55.90;;;;;;5055918;28;20884;-64
2021/03/20 10:53:52;;;;;;;7.88;2.75;;;6.10;55.80;;;;;;5051820;28;20044;-67
2021/03/20 10:56:34;;;;;;;11.90;6.07;;;6.20;54.80;;;;;;5033415;28;20123;-67
2021/03/20 10:59:09;;;;;;;9.73;3.25;;;6.10;54.90;;;;;;5040124;28;20039;-64
2021/03/20 11:01:36;;;;;;;4.47;1.20;;;6.10;56.40;;;;;;5051482;28;20025;-64
2021/03/20 11:04:03;;;;;;;7.00;1.23;;;6.40;54.80;;;;;;5056253;28;20037;-66
2021/03/20 11:06:29;;;;;;;3.10;1.20;;;6.40;52.60;;;;;;5052126;28;20036;-64
2021/03/20 11:09:18;;;;;;;2.20;1.23;;;6.30;54.50;;;;;;5040124;28;20109;-64
2021/03/20 11:11:44;;;;;;;1.80;0.80;;;6.10;52.70;;;;;;5040284;28;20068;-64
2021/03/20 11:14:16;;;;;;;10.15;2.40;;;5.80;52.60;;;;;;5014726;28;20068;-64
2021/03/20 11:16:46;;;;;;;11.38;1.42;;;5.90;52.90;;;;;;5054450;28;20575;-64
2021/03/20 11:19:12;;;;;;;2.65;1.00;;;6.00;51.90;;;;;;5053854;28;20934;-65
2021/03/20 11:21:44;;;;;;;4.55;1.70;;;6.00;51.00;;;;;;5048906;28;20024;-66
2021/03/20 11:24:24;;;;;;;4.60;2.10;;;6.10;51.60;;;;;;5040272;28;20749;-64
2021/03/20 11:26:50;;;;;;;3.75;1.55;;;6.40;51.70;;;;;;5053055;28;20032;-64
2021/03/20 11:29:23;;;;;;;3.53;1.95;;;6.70;53.20;;;;;;5059682;28;20571;-66
2021/03/20 11:32:17;;;;;;;4.13;1.67;;;6.80;52.50;;;;;;5053962;28;20045;-66
2021/03/20 11:34:43;;;;;;;11.65;5.25;;;6.80;52.10;;;;;;5047407;28;20032;-66
2021/03/20 11:37:20;;;;;;;56.47;25.58;;;6.60;51.80;;;;;;5052567;28;20040;-66
2021/03/20 11:39:56;;;;;;;3.65;1.92;;;6.50;53.40;;;;;;5029146;28;20267;-66
2021/03/20 11:42:27;;;;;;;;;;;6.20;53.00;;;;;;5055387;28;20043;-66
2021/03/20 11:44:53;;;;;;;17.05;2.83;;;6.00;52.20;;;;;;5037675;28;19946;-64
2021/03/20 11:47:27;;;;;;;23.70;10.52;;;6.00;52.50;;;;;;5039441;28;20064;-64
2021/03/20 11:49:58;;;;;;;3.70;1.90;;;5.90;54.20;;;;;;5053783;28;20037;-65
2021/03/20 11:52:28;;;;;;;6.03;2.42;;;5.90;53.30;;;;;;5036696;28;20416;-65
2021/03/20 11:55:16;;;;;;;3.28;1.70;;;5.80;53.40;;;;;;5050308;28;20116;-65
2021/03/20 11:57:44;;;;;;;5.40;1.45;;;5.80;53.90;;;;;;5039129;28;20249;-65
2021/03/20 12:00:36;;;;;;;4.13;1.33;;;6.00;54.80;;;;;;5057122;28;20031;-66
2021/03/20 12:03:09;;;;;;;6.45;3.65;;;6.20;54.50;;;;;;5053748;28;20058;-65
2021/03/20 12:05:37;;;;;;;17.55;5.38;;;6.30;54.10;;;;;;5046754;28;20028;-65
2021/03/20 12:08:48;;;;;;;10.70;2.75;;;6.50;53.70;;;;;;5049521;28;20510;-65
2021/03/20 12:11:16;;;;;;;12.77;3.28;;;6.50;52.90;;;;;;5035524;28;20036;-65
2021/03/20 12:13:54;;;;;;;2.92;1.33;;;6.70;53.20;;;;;;5053991;28;20160;-66
2021/03/20 12:16:36;;;;;;;8.32;2.15;;;6.70;51.10;;;;;;5039989;28;20917;-66
2021/03/20 12:19:13;;;;;;;8.32;2.25;;;6.70;51.50;;;;;;5053891;28;20108;-65
2021/03/20 12:21:54;;;;;;;16.73;1.70;;;6.40;51.90;;;;;;5050168;28;20025;-65
2021/03/20 12:24:47;;;;;;;10.55;5.35;;;6.20;52.10;;;;;;5049794;28;20060;-65
2021/03/20 12:27:48;;;;;;;22.08;8.15;;;6.10;52.90;;;;;;5025468;28;20076;-65
2021/03/20 12:30:33;;;;;;;6.78;2.60;;;6.10;53.70;;;;;;5041984;28;20151;-65
2021/03/20 12:33:10;;;;;;;4.32;1.45;;;6.40;53.80;;;;;;5048899;28;20143;-65
2021/03/20 12:35:42;;;;;;;26.85;7.47;;;6.80;53.20;;;;;;5038930;28;20146;-65
2021/03/20 12:38:13;;;;;;;89.00;24.40;;;6.80;52.10;;;;;;5050824;28;20047;-65
2021/03/20 12:40:58;;;;;;;4.72;1.90;;;6.70;52.50;;;;;;5028482;28;20036;-65
2021/03/20 12:43:32;;;;;;;21.10;5.20;;;6.70;53.10;;;;;;5045355;28;20114;-65
2021/03/20 12:46:07;;;;;;;31.00;13.33;;;6.60;52.80;;;;;;5030271;28;20037;-65
2021/03/20 12:48:36;;;;;;;9.10;2.28;;;6.20;53.40;;;;;;5050382;28;20132;-65
2021/03/20 12:51:05;;;;;;;5.97;2.00;;;6.00;54.40;;;;;;5046733;28;20032;-65
2021/03/20 12:53:31;;;;;;;6.07;2.25;;;6.00;54.70;;;;;;5038855;28;20047;-65
2021/03/20 12:55:57;;;;;;;17.90;6.00;;;6.10;54.00;;;;;;5049976;28;20560;-65
2021/03/20 12:58:23;;;;;;;9.98;2.67;;;6.10;53.90;;;;;;5029844;28;20514;-65
2021/03/20 13:00:49;;;;;;;78.80;19.08;;;6.10;54.00;;;;;;5046733;28;20045;-65
2021/03/20 13:03:15;;;;;;;32.42;9.52;;;5.90;54.30;;;;;;5057448;28;20814;-65
2021/03/20 13:05:44;;;;;;;11.80;4.82;;;5.80;55.30;;;;;;5049302;28;20021;-65
2021/03/20 13:08:12;;;;;;;3.20;1.48;;;5.70;55.00;;;;;;5034950;28;20945;-66
2021/03/20 13:10:38;;;;;;;6.85;1.20;;;5.80;56.50;;;;;;5049440;28;20033;-65
2021/03/20 13:13:04;;;;;;;3.83;1.70;;;5.70;55.60;;;;;;5056213;28;20043;-65
2021/03/20 13:15:30;;;;;;;5.82;1.98;;;5.60;56.80;;;;;;5052902;28;20044;-65
2021/03/20 13:17:56;;;;;;;3.83;1.30;;;5.80;56.00;;;;;;5053030;28;20033;-65
2021/03/20 13:20:23;;;;;;;5.60;2.20;;;5.80;56.30;;;;;;5046246;28;20470;-65
2021/03/20 13:22:49;;;;;;;4.75;1.48;;;5.60;55.80;;;;;;5048378;28;20154;-65
2021/03/20 13:25:22;;;;;;;8.73;1.40;;;5.60;56.30;;;;;;5048609;28;20036;-65
2021/03/20 13:27:47;;;;;;;5.07;1.80;;;5.50;56.60;;;;;;5050545;28;20032;-67
2021/03/20 13:30:13;;;;;;;2.33;1.58;;;5.60;58.20;;;;;;5049321;28;20127;-67
2021/03/20 13:32:39;;;;;;;2.65;1.25;;;5.60;58.00;;;;;;5051130;28;20106;-67
2021/03/20 13:35:06;;;;;;;8.18;3.47;;;5.80;58.40;;;;;;5052839;28;20028;-65
2021/03/20 13:37:31;;;;;;;4.05;1.73;;;5.80;58.10;;;;;;5048160;28;20124;-66